createdAt,value
2018-06-10T00:00:34.130Z,21.90
2018-06-10T00:03:01.877Z,21.89
2018-06-10T00:05:29.441Z,21.81
2018-06-10T00:07:57.187Z,21.77
2018-06-10T00:10:24.764Z,21.80
2018-06-10T00:12:52.347Z,21.83
2018-06-10T00:15:20.022Z,21.83
2018-06-10T00:17:47.584Z,21.82
2018-06-10T00:20:15.374Z,21.81
2018-06-10T00:22:42.999Z,21.79
2018-06-10T00:25:10.543Z,21.79
2018-06-10T00:27:38.314Z,21.89
2018-06-10T00:30:05.887Z,21.83
2018-06-10T00:32:33.607Z,21.81
2018-06-10T00:35:01.215Z,21.82
2018-06-10T00:37:28.754Z,21.85
2018-06-10T00:39:56.563Z,21.93
2018-06-10T00:42:24.102Z,22.01
2018-06-10T00:44:51.728Z,21.98
2018-06-10T00:47:19.515Z,21.87
2018-06-10T00:49:47.098Z,21.91
2018-06-10T00:52:14.905Z,21.94
2018-06-10T00:54:42.458Z,21.93
2018-06-10T00:57:10.012Z,21.82
2018-06-10T00:59:37.798Z,21.81
2018-06-10T01:02:05.395Z,21.92
2018-06-10T01:04:33.108Z,21.84
2018-06-10T01:07:00.658Z,21.93
2018-06-10T01:09:28.243Z,22.03
2018-06-10T01:11:55.983Z,21.88
2018-06-10T01:14:23.532Z,21.81
2018-06-10T01:16:51.294Z,21.79
2018-06-10T01:19:19.850Z,21.88
2018-06-10T01:21:47.392Z,21.90
2018-06-10T01:24:15.162Z,21.86
2018-06-10T01:26:48.358Z,21.79
2018-06-10T01:29:15.981Z,21.73
2018-06-10T01:31:43.707Z,21.68
2018-06-10T01:34:11.242Z,21.76
2018-06-10T01:36:39.032Z,21.86
2018-06-10T01:39:06.710Z,21.95
2018-06-10T01:41:34.411Z,21.98
2018-06-10T01:44:02.187Z,22.05
2018-06-10T01:46:29.732Z,22.03
2018-06-10T01:48:57.428Z,21.93
2018-06-10T01:51:25.029Z,21.91
2018-06-10T01:53:52.560Z,21.97
2018-06-10T01:56:20.347Z,21.91
2018-06-10T01:58:47.918Z,21.82
2018-06-10T02:01:15.608Z,21.76
2018-06-10T02:03:43.252Z,21.75
2018-06-10T02:06:10.895Z,21.75
2018-06-10T02:08:39.254Z,21.69
2018-06-10T02:11:06.843Z,21.79
2018-06-10T02:13:34.434Z,21.87
2018-06-10T02:16:02.164Z,21.92
2018-06-10T02:18:29.723Z,21.87
2018-06-10T02:20:57.438Z,21.91
2018-06-10T02:23:25.057Z,21.96
2018-06-10T02:25:52.615Z,22.00
2018-06-10T02:28:20.387Z,22.01
2018-06-10T02:30:47.926Z,21.94
2018-06-10T02:33:15.631Z,21.91
2018-06-10T02:35:43.302Z,21.91
2018-06-10T02:38:10.867Z,21.96
2018-06-10T02:40:38.615Z,21.98
2018-06-10T02:43:06.178Z,22.02
2018-06-10T02:45:33.838Z,22.01
2018-06-10T02:48:01.625Z,21.98
2018-06-10T02:50:29.218Z,21.98
2018-06-10T02:52:57.003Z,22.03
2018-06-10T02:55:24.542Z,21.94
2018-06-10T02:57:52.168Z,21.91
2018-06-10T03:00:19.922Z,21.91
2018-06-10T03:02:47.460Z,21.93
2018-06-10T03:05:15.200Z,21.98
2018-06-10T03:07:42.748Z,22.05
2018-06-10T03:10:10.299Z,22.02
2018-06-10T03:12:38.065Z,21.98
2018-06-10T03:15:05.628Z,21.95
2018-06-10T03:17:33.339Z,22.00
2018-06-10T03:20:00.956Z,21.95
2018-06-10T03:22:28.492Z,21.98
2018-06-10T03:24:56.235Z,21.87
2018-06-10T03:27:23.820Z,21.92
2018-06-10T03:29:51.555Z,21.96
2018-06-10T03:32:19.262Z,21.99
2018-06-10T03:34:46.835Z,22.03
2018-06-10T03:37:14.601Z,22.02
2018-06-10T03:39:42.146Z,22.03
2018-06-10T03:42:09.890Z,22.05
2018-06-10T03:44:37.602Z,22.08
2018-06-10T03:47:05.210Z,22.08
2018-06-10T03:49:32.981Z,22.07
2018-06-10T03:52:00.513Z,22.09
2018-06-10T03:54:28.097Z,22.12
2018-06-10T03:56:55.924Z,22.13
2018-06-10T03:59:23.469Z,22.16
2018-06-10T04:01:51.240Z,22.16
2018-06-10T04:04:18.820Z,22.15
2018-06-10T04:06:46.361Z,22.14
2018-06-10T04:09:14.069Z,22.16
2018-06-10T04:11:41.635Z,22.21
2018-06-10T04:14:09.387Z,22.22
2018-06-10T04:16:37.000Z,22.12
2018-06-10T04:19:04.616Z,22.13
2018-06-10T04:21:32.437Z,22.22
2018-06-10T04:23:59.980Z,22.30
2018-06-10T04:26:27.780Z,22.37
2018-06-10T04:28:55.400Z,22.44
2018-06-10T04:31:22.963Z,22.48
2018-06-10T04:33:50.723Z,22.53
2018-06-10T04:36:18.262Z,22.45
2018-06-10T04:38:45.886Z,22.49
2018-06-10T04:41:13.622Z,22.55
2018-06-10T04:43:41.171Z,22.58
2018-06-10T04:46:08.970Z,22.60
2018-06-10T04:48:36.530Z,22.66
2018-06-10T04:51:04.198Z,22.56
2018-06-10T04:53:31.966Z,22.40
2018-06-10T04:55:59.547Z,22.38
2018-06-10T04:58:27.312Z,22.36
2018-06-10T05:00:54.868Z,22.40
2018-06-10T05:03:22.450Z,22.29
2018-06-10T05:05:50.179Z,22.34
2018-06-10T05:08:17.728Z,22.48
2018-06-10T05:10:45.463Z,22.51
2018-06-10T05:13:13.062Z,22.54
2018-06-10T05:15:40.632Z,22.63
2018-06-10T05:18:08.483Z,22.61
2018-06-10T05:20:36.050Z,22.52
2018-06-10T05:23:03.780Z,22.56
2018-06-10T05:25:31.413Z,22.53
2018-06-10T05:27:58.936Z,22.60
2018-06-10T05:30:26.687Z,22.59
2018-06-10T05:32:54.254Z,22.66
2018-06-10T05:35:22.113Z,22.60
2018-06-10T05:37:49.804Z,22.58
2018-06-10T05:40:17.379Z,22.70
2018-06-10T05:42:45.138Z,22.84
2018-06-10T05:45:12.695Z,22.93
2018-06-10T05:47:40.336Z,23.07
2018-06-10T05:50:08.086Z,23.01
2018-06-10T05:52:35.626Z,23.03
2018-06-10T05:55:03.424Z,23.06
2018-06-10T05:57:31.036Z,23.20
2018-06-10T05:59:58.585Z,23.11
2018-06-10T06:02:26.451Z,23.20
2018-06-10T06:04:53.999Z,23.28
2018-06-10T06:07:21.739Z,23.38
2018-06-10T06:09:49.319Z,23.52
2018-06-10T06:12:16.850Z,23.59
2018-06-10T06:14:44.628Z,23.60
2018-06-10T06:17:12.197Z,23.64
2018-06-10T06:19:39.875Z,23.76
2018-06-10T06:22:07.511Z,23.71
2018-06-10T06:24:35.158Z,23.74
2018-06-10T06:27:02.912Z,23.80
2018-06-10T06:29:30.457Z,23.93
2018-06-10T06:31:58.086Z,23.95
2018-06-10T06:34:25.855Z,24.08
2018-06-10T06:36:53.439Z,23.99
2018-06-10T06:39:21.132Z,24.02
2018-06-10T06:41:48.667Z,24.09
2018-06-10T06:44:16.271Z,24.29
2018-06-10T06:46:44.110Z,24.39
2018-06-10T06:49:11.664Z,24.54
2018-06-10T06:51:39.370Z,24.30
2018-06-10T06:54:07.001Z,24.09
2018-06-10T06:56:34.532Z,24.08
2018-06-10T06:59:02.091Z,24.17
2018-06-10T07:01:29.692Z,24.21
2018-06-10T07:03:57.238Z,24.14
2018-06-10T07:06:24.784Z,24.08
2018-06-10T07:08:52.358Z,24.17
2018-06-10T07:11:19.922Z,24.29
2018-06-10T07:13:48.587Z,24.23
2018-06-10T07:16:16.137Z,24.19
2018-06-10T07:18:43.650Z,24.22
2018-06-10T07:21:11.198Z,24.30
2018-06-10T07:23:38.795Z,24.43
2018-06-10T07:26:06.364Z,24.52
2018-06-10T07:28:33.894Z,24.72
2018-06-10T07:31:01.486Z,24.92
2018-06-10T07:33:29.030Z,24.81
2018-06-10T07:35:56.585Z,24.94
2018-06-10T07:38:24.166Z,25.01
2018-06-10T07:40:51.731Z,25.19
2018-06-10T07:43:19.246Z,25.30
2018-06-10T07:45:46.826Z,25.14
2018-06-10T07:48:14.385Z,25.17
2018-06-10T07:50:41.919Z,25.22
2018-06-10T07:53:09.463Z,25.32
2018-06-10T07:55:37.182Z,25.60
2018-06-10T07:58:04.764Z,25.77
2018-06-10T08:00:32.328Z,25.91
2018-06-10T08:02:59.865Z,25.94
2018-06-10T08:05:27.495Z,26.03
2018-06-10T08:07:55.066Z,26.13
2018-06-10T08:10:22.600Z,26.34
2018-06-10T08:12:50.165Z,26.46
2018-06-10T08:15:17.775Z,26.65
2018-06-10T08:17:45.302Z,26.83
2018-06-10T08:20:12.824Z,26.54
2018-06-10T08:22:40.395Z,26.52
2018-06-10T08:25:08.013Z,26.51
2018-06-10T08:27:35.579Z,26.45
2018-06-10T08:30:03.438Z,26.42
2018-06-10T08:32:31.002Z,26.36
2018-06-10T08:34:58.542Z,26.38
2018-06-10T08:37:26.149Z,26.48
2018-06-10T08:39:53.638Z,26.48
2018-06-10T08:42:21.198Z,26.26
2018-06-10T08:44:48.763Z,26.14
2018-06-10T08:47:16.280Z,26.14
2018-06-10T08:49:43.862Z,26.13
2018-06-10T08:52:11.438Z,26.08
2018-06-10T08:54:39.016Z,25.96
2018-06-10T08:57:06.567Z,25.90
2018-06-10T08:59:34.855Z,25.72
2018-06-10T09:02:02.389Z,25.59
2018-06-10T09:04:29.949Z,25.67
2018-06-10T09:06:57.527Z,25.45
2018-06-10T09:09:25.074Z,25.39
2018-06-10T09:11:52.628Z,25.50
2018-06-10T09:14:20.170Z,25.47
2018-06-10T09:16:47.717Z,25.45
2018-06-10T09:19:15.257Z,25.47
2018-06-10T09:21:42.822Z,25.72
2018-06-10T09:24:10.359Z,25.77
2018-06-10T09:26:37.909Z,25.96
2018-06-10T09:29:05.480Z,25.83
2018-06-10T09:31:33.006Z,25.74
2018-06-10T09:34:00.554Z,25.94
2018-06-10T09:36:28.130Z,26.00
2018-06-10T09:38:55.683Z,26.01
2018-06-10T09:41:23.236Z,26.02
2018-06-10T09:43:50.795Z,25.97
2018-06-10T09:46:18.384Z,25.90
2018-06-10T09:48:45.922Z,25.88
2018-06-10T09:51:13.531Z,26.07
2018-06-10T09:53:41.126Z,26.30
2018-06-10T09:56:08.693Z,26.55
2018-06-10T09:58:36.275Z,26.77
2018-06-10T10:01:03.809Z,27.07
2018-06-10T10:03:31.517Z,27.11
2018-06-10T10:05:59.107Z,27.53
2018-06-10T10:08:26.644Z,27.74
2018-06-10T10:10:54.225Z,28.15
2018-06-10T10:13:21.961Z,28.43
2018-06-10T10:15:49.555Z,28.41
2018-06-10T10:18:17.098Z,28.33
2018-06-10T10:20:44.655Z,28.68
2018-06-10T10:23:12.307Z,28.81
2018-06-10T10:25:39.885Z,28.78
2018-06-10T10:28:07.495Z,28.81
2018-06-10T10:30:35.298Z,28.99
2018-06-10T10:33:02.819Z,28.75
2018-06-10T10:35:30.390Z,28.72
2018-06-10T10:37:57.938Z,28.88
2018-06-10T10:40:25.526Z,28.94
2018-06-10T10:42:53.166Z,28.98
2018-06-10T10:45:20.725Z,29.25
2018-06-10T10:47:48.260Z,29.45
2018-06-10T10:50:15.887Z,29.38
2018-06-10T10:52:43.406Z,29.02
2018-06-10T10:55:10.983Z,28.90
2018-06-10T10:57:38.555Z,28.80
2018-06-10T11:00:06.121Z,29.12
2018-06-10T11:02:33.625Z,29.57
2018-06-10T11:05:01.208Z,29.88
2018-06-10T11:07:28.719Z,29.90
2018-06-10T11:09:56.224Z,29.94
2018-06-10T11:12:23.780Z,29.84
2018-06-10T11:14:51.344Z,29.75
2018-06-10T11:17:18.884Z,30.06
2018-06-10T11:19:46.435Z,30.49
2018-06-10T11:22:13.959Z,31.27
2018-06-10T11:24:41.499Z,31.74
2018-06-10T11:27:09.129Z,31.84
2018-06-10T11:29:36.586Z,31.77
2018-06-10T11:32:04.078Z,31.86
2018-06-10T11:34:31.679Z,32.37
2018-06-10T11:36:59.173Z,31.71
2018-06-10T11:39:26.715Z,31.80
2018-06-10T11:41:54.274Z,32.09
2018-06-10T11:44:21.813Z,32.43
2018-06-10T11:46:49.545Z,33.84
2018-06-10T11:49:17.474Z,35.13
2018-06-10T11:51:44.978Z,35.25
2018-06-10T11:54:12.727Z,36.17
2018-06-10T11:56:40.467Z,36.65
2018-06-10T11:59:08.002Z,37.44
2018-06-10T12:01:35.543Z,37.95
2018-06-10T12:04:03.107Z,38.50
2018-06-10T12:06:30.651Z,38.88
2018-06-10T12:08:58.210Z,38.23
2018-06-10T12:11:25.783Z,37.34
2018-06-10T12:13:53.322Z,36.03
2018-06-10T12:16:20.872Z,34.93
2018-06-10T12:18:48.693Z,34.57
2018-06-10T12:21:16.226Z,34.10
2018-06-10T12:23:43.810Z,34.98
2018-06-10T12:26:11.382Z,36.39
2018-06-10T12:28:38.918Z,37.37
2018-06-10T12:31:06.700Z,37.81
2018-06-10T12:33:34.252Z,38.36
2018-06-10T12:36:01.874Z,38.42
2018-06-10T12:38:29.388Z,38.71
2018-06-10T12:40:57.121Z,38.76
2018-06-10T12:43:24.630Z,38.46
2018-06-10T12:45:52.572Z,36.23
2018-06-10T12:48:20.194Z,36.21
2018-06-10T12:50:47.795Z,34.88
2018-06-10T12:53:15.485Z,33.81
2018-06-10T12:55:43.062Z,33.15
2018-06-10T12:58:10.566Z,32.62
2018-06-10T13:00:38.107Z,34.70
2018-06-10T13:03:05.835Z,35.34
2018-06-10T13:05:33.662Z,34.84
2018-06-10T13:08:01.186Z,36.09
2018-06-10T13:10:28.769Z,35.92
2018-06-10T13:12:56.330Z,36.04
2018-06-10T13:15:23.858Z,36.30
2018-06-10T13:17:51.414Z,35.09
2018-06-10T13:20:18.932Z,34.91
2018-06-10T13:22:46.459Z,33.64
2018-06-10T13:25:14.016Z,32.91
2018-06-10T13:27:41.644Z,32.81
2018-06-10T13:30:09.107Z,32.77
2018-06-10T13:32:36.752Z,32.48
2018-06-10T13:35:04.285Z,31.99
2018-06-10T13:37:31.782Z,31.50
2018-06-10T13:39:59.380Z,31.11
2018-06-10T13:42:26.909Z,30.76
2018-06-10T13:44:54.418Z,30.54
2018-06-10T13:47:21.970Z,30.15
2018-06-10T13:49:49.466Z,29.97
2018-06-10T13:52:16.998Z,29.89
2018-06-10T13:54:44.550Z,29.59
2018-06-10T13:57:12.049Z,29.34
2018-06-10T13:59:39.552Z,28.95
2018-06-10T14:02:07.143Z,28.98
2018-06-10T14:04:34.666Z,28.93
2018-06-10T14:07:02.226Z,28.97
2018-06-10T14:09:29.758Z,28.84
2018-06-10T14:11:57.373Z,28.66
2018-06-10T14:14:24.874Z,28.48
2018-06-10T14:16:52.401Z,28.33
2018-06-10T14:19:19.953Z,28.31
2018-06-10T14:21:47.458Z,28.21
2018-06-10T14:24:14.994Z,27.93
2018-06-10T14:26:42.494Z,27.92
2018-06-10T14:29:10.033Z,28.21
2018-06-10T14:31:37.606Z,29.06
2018-06-10T14:34:05.130Z,30.16
2018-06-10T14:36:32.618Z,31.23
2018-06-10T14:39:00.177Z,31.72
2018-06-10T14:41:27.697Z,32.19
2018-06-10T14:43:55.213Z,32.31
2018-06-10T14:46:22.746Z,32.44
2018-06-10T14:48:50.281Z,32.93
2018-06-10T14:51:17.834Z,33.71
2018-06-10T14:53:45.385Z,33.42
2018-06-10T14:56:12.901Z,32.27
2018-06-10T14:58:40.402Z,32.34
2018-06-10T15:01:07.946Z,31.43
2018-06-10T15:03:35.491Z,31.07
2018-06-10T15:06:03.262Z,30.55
2018-06-10T15:08:31.018Z,30.47
2018-06-10T15:10:58.572Z,30.43
2018-06-10T15:13:26.379Z,30.35
2018-06-10T15:15:54.031Z,30.36
2018-06-10T15:18:21.586Z,30.31
2018-06-10T15:20:49.410Z,30.13
2018-06-10T15:23:16.990Z,29.86
2018-06-10T15:25:44.725Z,30.04
2018-06-10T15:28:12.308Z,29.95
2018-06-10T15:30:40.007Z,29.78
2018-06-10T15:33:07.758Z,29.62
2018-06-10T15:35:35.273Z,29.39
2018-06-10T15:38:02.948Z,29.13
2018-06-10T15:40:30.723Z,28.75
2018-06-10T15:42:58.254Z,28.89
2018-06-10T15:45:26.240Z,28.72
2018-06-10T15:47:53.828Z,28.67
2018-06-10T15:50:21.460Z,28.77
2018-06-10T15:52:49.274Z,28.75
2018-06-10T15:55:16.798Z,28.81
2018-06-10T15:57:44.559Z,28.88
2018-06-10T16:00:12.302Z,28.99
2018-06-10T16:02:39.819Z,29.08
2018-06-10T16:05:07.655Z,29.06
2018-06-10T16:07:35.189Z,29.05
2018-06-10T16:10:02.865Z,28.89
2018-06-10T16:12:30.573Z,28.91
2018-06-10T16:14:58.314Z,28.89
2018-06-10T16:17:26.144Z,28.94
2018-06-10T16:19:53.670Z,28.75
2018-06-10T16:22:21.258Z,28.59
2018-06-10T16:24:49.021Z,28.19
2018-06-10T16:27:16.553Z,28.32
2018-06-10T16:29:44.333Z,28.52
2018-06-10T16:32:11.901Z,28.54
2018-06-10T16:34:39.475Z,28.59
2018-06-10T16:37:07.218Z,28.53
2018-06-10T16:39:34.934Z,28.36
2018-06-10T16:42:02.693Z,28.10
2018-06-10T16:44:30.303Z,28.04
2018-06-10T16:46:57.810Z,28.03
2018-06-10T16:49:25.638Z,27.93
2018-06-10T16:51:53.203Z,27.81
2018-06-10T16:54:20.919Z,27.81
2018-06-10T16:56:48.658Z,27.77
2018-06-10T16:59:16.239Z,27.26
2018-06-10T17:01:44.152Z,26.77
2018-06-10T17:04:11.646Z,26.70
2018-06-10T17:06:39.296Z,26.52
2018-06-10T17:36:32.314Z,27.70
2018-06-10T17:38:59.886Z,27.13
2018-06-10T17:41:27.486Z,26.77
2018-06-10T17:43:55.384Z,26.65
2018-06-10T17:46:22.920Z,26.46
2018-06-10T17:48:50.838Z,26.31
2018-06-10T17:51:18.550Z,26.25
2018-06-10T17:53:46.114Z,26.22
2018-06-10T17:56:13.907Z,26.12
2018-06-10T17:58:41.496Z,26.00
2018-06-10T18:01:09.329Z,25.94
2018-06-10T18:03:36.849Z,25.89
2018-06-10T18:06:04.460Z,25.79
2018-06-10T18:08:32.177Z,25.65
2018-06-10T18:10:59.927Z,25.55
2018-06-10T18:13:27.522Z,25.46
2018-06-10T18:15:55.306Z,25.32
2018-06-10T18:18:22.904Z,25.22
2018-06-10T18:20:50.634Z,25.20
2018-06-10T18:23:18.523Z,25.07
2018-06-10T18:25:46.070Z,24.99
2018-06-10T18:28:13.851Z,24.97
2018-06-10T18:30:41.506Z,24.95
2018-06-10T18:33:09.118Z,24.82
2018-06-10T18:35:37.013Z,24.74
2018-06-10T18:38:04.854Z,24.64
2018-06-10T18:40:32.496Z,24.60
2018-06-10T18:43:00.459Z,24.53
2018-06-10T18:45:28.268Z,24.47
2018-06-10T18:47:56.519Z,24.44
2018-06-10T18:50:25.071Z,24.42
2018-06-10T18:52:52.706Z,24.35
2018-06-10T18:55:20.438Z,24.36
2018-06-10T18:57:48.295Z,24.30
2018-06-10T19:00:15.939Z,24.25
2018-06-10T19:02:43.615Z,24.18
2018-06-10T19:05:11.198Z,24.05
2018-06-10T19:07:38.742Z,23.95
2018-06-10T19:10:06.283Z,23.92
2018-06-10T19:12:34.202Z,23.90
2018-06-10T19:15:01.831Z,23.91
2018-06-10T19:17:29.439Z,23.97
2018-06-10T19:19:57.374Z,23.82
2018-06-10T19:22:24.887Z,23.73
2018-06-10T19:24:52.619Z,23.70
2018-06-10T19:27:20.499Z,23.59
2018-06-10T19:29:48.034Z,23.59
2018-06-10T19:32:15.878Z,23.65
2018-06-10T19:34:43.450Z,23.71
2018-06-10T19:37:11.107Z,23.72
2018-06-10T19:39:38.879Z,23.72
2018-06-10T19:42:06.455Z,23.70
2018-06-10T19:44:34.287Z,23.76
2018-06-10T19:47:02.522Z,23.71
2018-06-10T19:49:30.103Z,23.68
2018-06-10T19:51:57.989Z,23.66
2018-06-10T19:54:25.508Z,23.68
2018-06-10T19:56:53.191Z,23.63
2018-06-10T19:59:21.226Z,23.55
2018-06-10T20:01:48.786Z,23.55
2018-06-10T20:04:16.588Z,23.43
2018-06-10T20:06:44.437Z,23.33
2018-06-10T20:09:12.039Z,23.27
2018-06-10T20:11:39.985Z,23.24
2018-06-10T20:14:07.537Z,23.18
2018-06-10T20:16:35.148Z,23.24
2018-06-10T20:19:03.150Z,23.24
2018-06-10T20:21:30.767Z,23.21
2018-06-10T20:23:58.472Z,23.05
2018-06-10T20:26:26.160Z,22.87
2018-06-10T20:28:53.747Z,22.73
2018-06-10T20:31:21.634Z,22.70
2018-06-10T20:33:49.233Z,22.61
2018-06-10T20:36:16.972Z,22.60
2018-06-10T20:38:44.837Z,22.63
2018-06-10T20:41:12.389Z,22.73
2018-06-10T20:43:39.910Z,22.79
2018-06-10T20:46:07.451Z,22.88
2018-06-10T20:48:35.150Z,23.02
2018-06-10T20:51:02.659Z,23.08
2018-06-10T20:53:30.243Z,23.10
2018-06-10T20:55:57.806Z,23.12
2018-06-10T20:58:25.342Z,23.08
2018-06-10T21:00:52.887Z,23.09
2018-06-10T21:03:20.431Z,23.06
2018-06-10T21:05:47.955Z,23.05
2018-06-10T21:08:15.482Z,23.04
2018-06-10T21:10:43.065Z,23.05
2018-06-10T21:13:11.213Z,23.10
2018-06-10T21:15:38.731Z,23.13
2018-06-10T21:18:06.314Z,23.09
2018-06-10T21:20:34.067Z,23.01
2018-06-10T21:23:01.587Z,23.00
2018-06-10T21:25:29.127Z,22.98
2018-06-10T21:27:56.667Z,23.00
2018-06-10T21:30:24.174Z,23.06
2018-06-10T21:32:51.756Z,23.10
2018-06-10T21:35:19.255Z,23.09
2018-06-10T21:37:46.790Z,23.02
2018-06-10T21:40:14.364Z,22.94
2018-06-10T21:42:41.902Z,22.96
2018-06-10T21:45:09.421Z,22.94
2018-06-10T21:47:36.983Z,22.88
2018-06-10T21:50:04.527Z,22.54
2018-06-10T21:52:32.083Z,22.36
2018-06-10T21:54:59.676Z,22.38
2018-06-10T21:57:27.231Z,22.24
2018-06-10T21:59:54.745Z,22.23
2018-06-10T22:02:22.314Z,22.17
2018-06-10T22:04:49.851Z,22.19
2018-06-10T22:07:17.397Z,22.12
2018-06-10T22:09:44.959Z,22.01
2018-06-10T22:12:12.540Z,21.95
2018-06-10T22:14:40.080Z,21.94
2018-06-10T22:17:07.625Z,21.96
2018-06-10T22:19:35.153Z,22.07
2018-06-10T22:22:02.703Z,22.12
2018-06-10T22:24:30.334Z,22.15
2018-06-10T22:26:57.906Z,22.09
2018-06-10T22:29:25.470Z,22.09
2018-06-10T22:31:53.093Z,22.01
2018-06-10T22:34:20.574Z,22.05
2018-06-10T22:36:48.148Z,22.09
2018-06-10T22:39:15.790Z,22.15
2018-06-10T22:41:43.346Z,22.15
2018-06-10T22:44:10.875Z,21.95
2018-06-10T22:46:38.451Z,21.88
2018-06-10T22:49:05.973Z,21.88
2018-06-10T22:51:33.525Z,21.95
2018-06-10T22:54:12.263Z,21.90
2018-06-10T22:56:39.823Z,21.91
2018-06-10T22:59:07.326Z,21.92
2018-06-10T23:01:34.920Z,21.84
2018-06-10T23:04:02.474Z,21.75
2018-06-10T23:06:30.074Z,21.72
2018-06-10T23:08:57.619Z,21.63
2018-06-10T23:11:25.156Z,21.59
2018-06-10T23:13:52.671Z,21.61
2018-06-10T23:16:20.240Z,21.64
2018-06-10T23:18:47.766Z,21.64
2018-06-10T23:21:15.301Z,21.51
2018-06-10T23:23:42.859Z,21.55
2018-06-10T23:26:10.403Z,21.68
2018-06-10T23:28:37.990Z,21.70
2018-06-10T23:31:05.699Z,21.75
2018-06-10T23:33:33.235Z,21.80
2018-06-10T23:36:00.762Z,21.81
2018-06-10T23:38:28.346Z,21.80
2018-06-10T23:40:55.872Z,21.83
2018-06-10T23:43:23.452Z,21.75
2018-06-10T23:48:17.909Z,21.68
2018-06-10T23:50:45.445Z,21.68
2018-06-10T23:53:13.022Z,21.64
2018-06-10T23:55:40.558Z,21.63
2018-06-10T23:58:08.080Z,21.61
